Four Corners Regional Airport
KFMN : now visible

Airfield :











YOU CAN JOIN US ON...

 
LOGIN :

Register | Disclaimer

   EN    FR    IT 

 









Legend :    VFR   Marginal VFR   IFR   Intensive IFR   Very Intensive IFR
Visi :
Ceiling :
>= 8 km
>= 3000ft
5 to 8 km
1000 to 3000 ft
1500m to 5 km
500 to 1000 ft
800 to 1500m
200 to 500 ft
< 800m
< 200 ft
Symbols :   Thunderstorms  Fog  Heavy snow  Heavy precipitations  Wind > 20 kt






- Airport Elevation : 5506 ft


KFMN - Four Corners Regional

CURRENT METAR :
  • 141953Z 27006KT 10SM BKN070 BKN085 BKN100 10/01 A2977 RMK AO2 RAB1854E03 SLP068 P0000 T01000006

EXPIRED METARs :
  • 141853Z 27004KT 10SM FEW046 BKN070 OVC100 09/00 A2980 RMK AO2 SLP078 T00940000
  • 141753Z 00000KT 10SM SCT070 BKN100 08/M01 A2983 RMK AO2 SLP092 T00831006 10083 20000 58006

TAF KFMN
Valid from the 14 at 18:00 until the 15 at 18:00 UTC


141743Z 1418/1518 28008KT P6SM BKN080
FM142300 31008KT P6SM VCSH OVC040
FM150200 29006KT P6SM -RA OVC030
FM150600 28006KT 4SM -SNRA BR OVC020
FM151000 27006KT 3SM -SN BR OVC010
FM151600 30010KT P6SM VCSH OVC035
PROB30 1516/1518 4SM -RASN OVC025



MET'MAP, your aeronautical weather chart ! - Copyright ORBIFLY December 2007 - Disclaimer

ORBIFLY MET'MAP TEAM :

Programming & Development : Alexandra Zaïnal
Concept & original design : Baudouin d'Aumeries
Assistance for programming : Marc-Olivier Méhu
Technical & hardware support : Manuel Goepfert

Contact : metmap@orbifly.com




SOURCES & CREDITS :

   NOAA       Earth
Advisory